Portada
METAR-TAF:

METAR-TAF

Aeroports :

Aeroport de Benina

Bengasi, Líbia

latitud: 32-06N, longitud: 020-16E, altitud: 131 m

METAR: manca

Hora: 21:42 (19:42 UTC)

Pronòstic

L'informe es va fer fa 2 hores i 42 minuts, a les 17:00 UTC
Pronòstic vàlid del 03 a les 18 UTC al 04 a les 18 UTC
Vent 12 kt del Nord
Visibilitat: 8000 m
Núvols disperses a una alçada de 2500 ft
Evolucionant progressivament
l' 03 a les 22 UTC al 03 a les 24 UTC
Vent 14 kt del Nord-Est
Evolucionant progressivament
l' 04 a les 06 UTC al 04 a les 08 UTC
Vent 12 kt del Est/Sud-Est

TAF: HLLB 031700Z 0318/0418 36012KT 8000 SCT025 BECMG 0322/0324 04014KT BECMG 0406/0408 12012KT

Observacions i pronòstics meteorològics de més de 4000 aeroports (METAR i TAF).

Les estacions disponibles són els punts grocs i vermells al mapa.

Posi el ratolí al punt desitjat per veure el nom de l'estació.

Feu clic per veure les observacions i els pronòstics meteorològics.

Per canviar el mapa: feu clic els botons verds amb una creu de color negre per apropar; al botó verd amb un guió per allunyar la imatge; o en les fletxes verdes per a mapes adjacents.


METAR-TAF: